createdAt,value
2022-10-16T00:00:56.639Z,15.06
2022-10-16T00:04:02.102Z,15.09
2022-10-16T00:07:06.307Z,15.11
2022-10-16T00:10:09.313Z,15.06
2022-10-16T00:13:11.960Z,15.08
2022-10-16T00:16:15.008Z,15.07
2022-10-16T00:19:19.083Z,15.09
2022-10-16T00:22:21.745Z,15.06
2022-10-16T00:25:24.374Z,15.06
2022-10-16T00:28:27.232Z,15.05
2022-10-16T00:31:30.645Z,15.07
2022-10-16T00:34:34.651Z,15.10
2022-10-16T00:37:37.365Z,15.14
2022-10-16T00:40:40.105Z,15.17
2022-10-16T00:43:44.454Z,15.15
2022-10-16T00:46:47.131Z,15.14
2022-10-16T00:49:52.392Z,15.12
2022-10-16T00:52:56.027Z,15.12
2022-10-16T00:55:59.745Z,15.11
2022-10-16T00:59:03.638Z,15.15
2022-10-16T01:02:07.189Z,15.09
2022-10-16T01:05:11.516Z,15.09
2022-10-16T01:08:16.836Z,15.12
2022-10-16T01:11:21.614Z,15.14
2022-10-16T01:14:28.750Z,15.16
2022-10-16T01:17:36.744Z,15.11
2022-10-16T01:20:44.226Z,15.13
2022-10-16T01:23:52.052Z,15.15
2022-10-16T01:27:07.314Z,15.13
2022-10-16T01:30:14.833Z,15.09
2022-10-16T01:33:21.291Z,15.10
2022-10-16T01:36:27.619Z,15.09
2022-10-16T01:39:32.884Z,15.07
2022-10-16T01:42:39.650Z,15.07
2022-10-16T01:45:43.570Z,15.01
2022-10-16T01:48:46.858Z,15.00
2022-10-16T01:51:51.509Z,14.93
2022-10-16T01:54:56.148Z,14.91
2022-10-16T01:58:01.885Z,14.93
2022-10-16T02:01:06.254Z,14.91
2022-10-16T02:04:14.849Z,14.82
2022-10-16T02:07:17.754Z,14.94
2022-10-16T02:10:20.697Z,14.97
2022-10-16T02:13:27.970Z,14.98
2022-10-16T02:16:35.561Z,15.04
2022-10-16T02:22:42.900Z,15.02
2022-10-16T02:25:47.438Z,15.05
2022-10-16T02:28:55.143Z,15.09
2022-10-16T02:32:00.430Z,15.02
2022-10-16T02:35:03.810Z,15.14
2022-10-16T02:38:07.467Z,15.18
2022-10-16T02:41:10.212Z,15.16
2022-10-16T02:44:14.435Z,15.08
2022-10-16T02:47:17.153Z,15.07
2022-10-16T02:50:19.869Z,15.06
2022-10-16T02:53:22.554Z,15.10
2022-10-16T02:56:25.282Z,15.08
2022-10-16T02:59:29.277Z,15.04
2022-10-16T03:02:31.937Z,15.04
2022-10-16T03:05:34.610Z,15.03
2022-10-16T03:08:37.275Z,14.97
2022-10-16T03:11:39.961Z,14.95
2022-10-16T03:14:43.998Z,14.95
2022-10-16T03:17:46.652Z,14.93
2022-10-16T03:20:49.294Z,14.95
2022-10-16T03:23:51.919Z,15.01
2022-10-16T03:26:54.605Z,15.03
2022-10-16T03:29:58.629Z,15.02
2022-10-16T03:33:01.268Z,15.06
2022-10-16T03:36:04.054Z,15.08
2022-10-16T03:39:06.747Z,15.04
2022-10-16T03:42:09.440Z,15.02
2022-10-16T03:45:13.761Z,15.00
2022-10-16T03:48:16.452Z,14.99
2022-10-16T03:51:19.113Z,14.89
2022-10-16T03:54:23.142Z,14.79
2022-10-16T03:57:26.045Z,14.72
2022-10-16T04:00:30.213Z,14.74
2022-10-16T04:03:33.135Z,14.64
2022-10-16T04:06:35.829Z,14.71
2022-10-16T04:09:38.491Z,14.62
2022-10-16T04:12:41.150Z,14.61
2022-10-16T04:15:46.503Z,14.65
2022-10-16T04:18:49.156Z,14.66
2022-10-16T04:21:51.862Z,14.65
2022-10-16T04:24:54.546Z,14.61
2022-10-16T04:27:57.414Z,14.62
2022-10-16T04:31:01.534Z,14.65
2022-10-16T04:34:04.222Z,14.59
2022-10-16T04:37:07.133Z,14.55
2022-10-16T04:40:09.968Z,14.53
2022-10-16T04:43:12.672Z,14.54
2022-10-16T04:46:16.709Z,14.61
2022-10-16T04:49:19.498Z,14.59
2022-10-16T04:52:22.639Z,14.56
2022-10-16T04:55:25.418Z,14.58
2022-10-16T04:58:28.092Z,14.56
2022-10-16T05:01:32.186Z,14.53
2022-10-16T05:04:34.844Z,14.56
2022-10-16T05:07:37.518Z,14.53
2022-10-16T05:10:40.203Z,14.53
2022-10-16T05:13:42.862Z,14.50
2022-10-16T05:16:48.996Z,14.53
2022-10-16T05:19:51.686Z,14.49
2022-10-16T05:22:54.334Z,14.55
2022-10-16T05:25:59.319Z,14.51
2022-10-16T05:29:02.275Z,14.52
2022-10-16T05:32:06.438Z,14.50
2022-10-16T05:35:12.555Z,14.53
2022-10-16T05:38:15.857Z,14.54
2022-10-16T05:41:22.310Z,14.56
2022-10-16T05:44:25.113Z,14.51
2022-10-16T05:47:29.581Z,14.57
2022-10-16T05:50:32.411Z,14.54
2022-10-16T05:53:35.952Z,14.51
2022-10-16T05:56:38.695Z,14.52
2022-10-16T05:59:41.371Z,14.50
2022-10-16T06:02:45.365Z,14.51
2022-10-16T06:05:48.035Z,14.56
2022-10-16T06:08:51.243Z,14.60
2022-10-16T06:11:53.852Z,14.63
2022-10-16T06:14:56.599Z,14.70
2022-10-16T06:18:00.592Z,14.75
2022-10-16T06:21:08.837Z,14.75
2022-10-16T06:24:11.755Z,14.56
2022-10-16T06:27:14.389Z,14.58
2022-10-16T06:30:17.152Z,14.53
2022-10-16T06:33:21.238Z,14.55
2022-10-16T06:36:24.389Z,14.64
2022-10-16T06:39:27.034Z,14.68
2022-10-16T06:42:29.783Z,14.75
2022-10-16T06:45:33.063Z,14.81
2022-10-16T06:48:37.369Z,14.81
2022-10-16T06:51:43.290Z,14.82
2022-10-16T06:54:46.429Z,14.87
2022-10-16T06:57:49.641Z,14.89
2022-10-16T07:00:57.174Z,14.97
2022-10-16T07:04:02.036Z,15.02
2022-10-16T07:07:07.006Z,15.12
2022-10-16T07:10:12.070Z,15.17
2022-10-16T07:13:15.299Z,15.27
2022-10-16T07:16:19.184Z,15.31
2022-10-16T07:19:23.503Z,15.37
2022-10-16T07:22:26.441Z,15.56
2022-10-16T07:25:29.305Z,15.55
2022-10-16T07:28:32.609Z,15.55
2022-10-16T07:31:35.342Z,15.61
2022-10-16T07:34:39.362Z,15.68
2022-10-16T07:37:46.160Z,15.77
2022-10-16T07:40:48.877Z,15.83
2022-10-16T07:43:52.443Z,15.88
2022-10-16T07:46:55.109Z,15.99
2022-10-16T07:49:59.109Z,16.05
2022-10-16T07:53:01.794Z,16.12
2022-10-16T07:56:05.521Z,16.19
2022-10-16T07:59:08.182Z,16.25
2022-10-16T08:02:10.835Z,16.26
2022-10-16T08:05:14.932Z,16.32
2022-10-16T08:08:18.820Z,16.39
2022-10-16T08:11:21.551Z,16.52
2022-10-16T08:14:24.258Z,16.49
2022-10-16T08:17:27.207Z,16.49
2022-10-16T08:20:32.003Z,16.60
2022-10-16T08:23:35.026Z,16.57
2022-10-16T08:26:37.729Z,16.60
2022-10-16T08:29:40.496Z,16.66
2022-10-16T08:32:43.352Z,16.67
2022-10-16T08:35:54.493Z,16.79
2022-10-16T08:38:57.185Z,16.82
2022-10-16T08:42:05.525Z,16.98
2022-10-16T08:45:17.711Z,17.02
2022-10-16T08:48:24.157Z,17.01
2022-10-16T08:51:29.758Z,17.06
2022-10-16T08:54:37.948Z,17.10
2022-10-16T08:57:40.761Z,17.19
2022-10-16T09:00:44.683Z,17.20
2022-10-16T09:03:54.328Z,17.25
2022-10-16T09:06:59.901Z,17.19
2022-10-16T09:10:11.085Z,17.20
2022-10-16T09:13:19.228Z,17.14
2022-10-16T09:16:24.182Z,17.20
2022-10-16T09:19:32.041Z,17.16
2022-10-16T09:22:36.204Z,17.22
2022-10-16T09:25:40.888Z,17.19
2022-10-16T09:28:44.042Z,17.18
2022-10-16T09:31:46.839Z,17.18
2022-10-16T09:34:50.476Z,17.23
2022-10-16T09:37:55.620Z,17.28
2022-10-16T09:41:03.122Z,17.31
2022-10-16T09:44:08.643Z,17.34
2022-10-16T09:47:15.437Z,17.33
2022-10-16T09:50:23.741Z,17.46
2022-10-16T09:53:28.683Z,17.42
2022-10-16T09:56:33.508Z,17.45
2022-10-16T09:59:36.303Z,17.46
2022-10-16T10:02:40.255Z,17.47
2022-10-16T10:05:42.957Z,17.55
2022-10-16T10:09:05.455Z,17.56
2022-10-16T10:12:20.751Z,17.57
2022-10-16T10:15:27.772Z,17.61
2022-10-16T10:18:32.909Z,17.64
2022-10-16T10:21:36.258Z,17.66
2022-10-16T10:24:40.326Z,17.69
2022-10-16T10:27:49.415Z,17.70
2022-10-16T10:30:57.697Z,17.74
2022-10-16T10:34:03.270Z,17.79
2022-10-16T10:37:11.291Z,17.83
2022-10-16T10:40:23.950Z,17.89
2022-10-16T10:43:34.302Z,18.04
2022-10-16T10:46:43.385Z,18.12
2022-10-16T10:49:54.526Z,18.16
2022-10-16T10:53:02.094Z,18.30
2022-10-16T10:56:11.816Z,18.33
2022-10-16T10:59:26.617Z,18.45
2022-10-16T11:02:35.200Z,18.57
2022-10-16T11:05:43.387Z,18.60
2022-10-16T11:08:50.512Z,18.77
2022-10-16T11:11:58.554Z,18.85
2022-10-16T11:15:03.750Z,19.11
2022-10-16T11:18:08.444Z,19.17
2022-10-16T11:21:13.800Z,19.16
2022-10-16T11:24:18.363Z,19.19
2022-10-16T11:27:25.611Z,19.20
2022-10-16T11:30:29.514Z,19.16
2022-10-16T11:33:36.114Z,19.14
2022-10-16T11:36:41.023Z,19.24
2022-10-16T11:39:45.202Z,19.32
2022-10-16T11:42:53.872Z,19.32
2022-10-16T11:45:57.350Z,19.55
2022-10-16T11:49:05.549Z,19.88
2022-10-16T11:52:10.271Z,20.00
2022-10-16T11:55:17.601Z,20.00
2022-10-16T11:58:26.193Z,19.98
2022-10-16T12:01:32.477Z,20.06
2022-10-16T12:04:46.162Z,20.10
2022-10-16T12:07:53.017Z,20.05
2022-10-16T12:10:56.344Z,19.95
2022-10-16T12:14:08.281Z,19.84
2022-10-16T12:17:26.050Z,19.75
2022-10-16T12:20:32.206Z,19.64
2022-10-16T12:23:35.610Z,19.45
2022-10-16T12:26:40.284Z,19.39
2022-10-16T12:29:46.367Z,19.40
2022-10-16T12:32:55.591Z,19.31
2022-10-16T12:36:00.235Z,19.27
2022-10-16T12:39:03.460Z,19.24
2022-10-16T12:42:07.472Z,19.23
2022-10-16T12:45:28.706Z,19.24
2022-10-16T12:48:42.385Z,19.20
2022-10-16T12:51:54.667Z,19.19
2022-10-16T12:55:01.894Z,19.17
2022-10-16T12:58:11.215Z,19.12
2022-10-16T13:01:21.108Z,19.08
2022-10-16T13:04:29.535Z,19.03
2022-10-16T13:07:41.319Z,18.92
2022-10-16T13:10:47.424Z,18.90
2022-10-16T13:14:01.326Z,18.86
2022-10-16T13:17:10.213Z,18.89
2022-10-16T13:20:19.503Z,18.86
2022-10-16T13:23:27.999Z,18.87
2022-10-16T13:26:38.853Z,18.89
2022-10-16T13:29:42.636Z,18.89
2022-10-16T13:32:48.386Z,18.88
2022-10-16T13:35:52.589Z,18.86
2022-10-16T13:39:05.635Z,18.83
2022-10-16T13:45:19.968Z,18.80
2022-10-16T13:48:24.325Z,18.81
2022-10-16T13:51:27.327Z,18.80
2022-10-16T13:54:30.771Z,18.82
2022-10-16T13:57:33.646Z,18.92
2022-10-16T14:03:41.131Z,18.88
2022-10-16T14:06:45.266Z,18.82
2022-10-16T14:09:50.314Z,18.79
2022-10-16T14:12:57.383Z,18.85
2022-10-16T14:16:02.095Z,18.97
2022-10-16T14:19:07.924Z,18.99
2022-10-16T14:22:23.039Z,19.02
2022-10-16T14:25:28.618Z,19.08
2022-10-16T14:28:31.829Z,19.00
2022-10-16T14:31:37.317Z,19.01
2022-10-16T14:34:42.137Z,19.11
2022-10-16T14:37:45.964Z,19.13
2022-10-16T14:40:49.696Z,19.12
2022-10-16T14:43:53.931Z,19.08
2022-10-16T14:46:56.793Z,19.08
2022-10-16T14:50:00.915Z,19.04
2022-10-16T14:53:03.938Z,19.10
2022-10-16T14:56:08.314Z,19.12
2022-10-16T14:59:15.764Z,19.05
2022-10-16T15:02:21.082Z,19.02
2022-10-16T15:05:27.019Z,18.97
2022-10-16T15:08:29.693Z,18.93
2022-10-16T15:11:34.045Z,18.92
2022-10-16T15:14:36.739Z,18.91
2022-10-16T15:17:39.412Z,18.84
2022-10-16T15:20:43.623Z,18.74
2022-10-16T15:23:46.287Z,18.72
2022-10-16T15:26:49.892Z,18.59
2022-10-16T15:29:52.699Z,18.59
2022-10-16T15:32:55.414Z,18.53
2022-10-16T15:35:59.465Z,18.45
2022-10-16T15:39:02.451Z,18.37
2022-10-16T15:42:06.856Z,18.31
2022-10-16T15:45:10.685Z,18.19
2022-10-16T15:48:14.631Z,18.20
2022-10-16T15:51:19.351Z,18.10
2022-10-16T15:54:23.989Z,18.18
2022-10-16T15:57:26.969Z,18.14
2022-10-16T16:00:29.737Z,18.04
2022-10-16T16:03:33.187Z,18.00
2022-10-16T16:06:38.584Z,18.02
2022-10-16T16:09:41.286Z,18.06
2022-10-16T16:12:44.254Z,18.04
2022-10-16T16:15:46.965Z,17.71
2022-10-16T16:18:50.398Z,17.43
2022-10-16T16:21:54.758Z,17.33
2022-10-16T16:24:57.800Z,17.43
2022-10-16T16:28:00.530Z,17.22
2022-10-16T16:31:03.299Z,17.26
2022-10-16T16:34:06.005Z,17.23
2022-10-16T16:37:10.193Z,16.98
2022-10-16T16:40:13.011Z,16.98
2022-10-16T16:43:15.726Z,17.08
2022-10-16T16:46:18.392Z,17.01
2022-10-16T16:49:21.191Z,16.81
2022-10-16T16:52:25.399Z,16.53
2022-10-16T16:55:28.143Z,16.61
2022-10-16T16:58:30.860Z,16.60
2022-10-16T17:01:33.757Z,16.58
2022-10-16T17:04:36.742Z,16.55
2022-10-16T17:07:41.821Z,16.35
2022-10-16T17:10:45.114Z,16.18
2022-10-16T17:13:50.022Z,16.20
2022-10-16T17:16:55.320Z,16.06
2022-10-16T17:19:58.073Z,16.08
2022-10-16T17:23:02.182Z,16.21
2022-10-16T17:26:05.480Z,16.23
2022-10-16T17:29:08.659Z,16.18
2022-10-16T17:32:11.565Z,16.12
2022-10-16T17:35:14.193Z,16.03
2022-10-16T17:38:18.251Z,15.93
2022-10-16T17:41:22.137Z,15.91
2022-10-16T17:44:24.844Z,15.94
2022-10-16T17:47:28.549Z,15.90
2022-10-16T17:50:31.243Z,16.02
2022-10-16T17:53:35.506Z,15.91
2022-10-16T17:56:38.387Z,15.97
2022-10-16T17:59:41.037Z,15.87
2022-10-16T18:02:44.057Z,15.82
2022-10-16T18:05:46.882Z,15.99
2022-10-16T18:08:51.261Z,15.97
2022-10-16T18:11:59.951Z,15.93
2022-10-16T18:15:02.631Z,15.86
2022-10-16T18:18:05.990Z,15.40
2022-10-16T18:21:11.021Z,15.68
2022-10-16T18:24:15.078Z,15.89
2022-10-16T18:27:17.849Z,15.90
2022-10-16T18:30:20.572Z,15.82
2022-10-16T18:33:23.330Z,15.53
2022-10-16T18:36:26.731Z,15.42
2022-10-16T18:39:31.055Z,15.58
2022-10-16T18:42:33.727Z,15.63
2022-10-16T18:45:36.652Z,15.65
2022-10-16T18:48:39.438Z,15.75
2022-10-16T18:51:44.051Z,15.77
2022-10-16T18:54:48.261Z,15.81
2022-10-16T18:57:50.953Z,15.84
2022-10-16T19:00:53.797Z,15.89
2022-10-16T19:03:58.042Z,15.85
2022-10-16T19:07:00.954Z,15.93
2022-10-16T19:10:05.333Z,16.02
2022-10-16T19:13:10.334Z,16.01
2022-10-16T19:16:20.441Z,16.04
2022-10-16T19:19:23.953Z,15.90
2022-10-16T19:22:40.922Z,16.01
2022-10-16T19:25:45.001Z,16.03
2022-10-16T19:28:48.440Z,16.06
2022-10-16T19:31:51.297Z,16.08
2022-10-16T19:34:54.117Z,16.17
2022-10-16T19:37:56.888Z,16.24
2022-10-16T19:41:07.388Z,16.15
2022-10-16T19:44:10.982Z,16.24
2022-10-16T19:47:13.671Z,16.20
2022-10-16T19:50:17.180Z,16.22
2022-10-16T19:53:20.122Z,16.09
2022-10-16T19:56:25.460Z,15.98
2022-10-16T19:59:28.259Z,15.88
2022-10-16T20:02:31.046Z,15.79
2022-10-16T20:05:33.858Z,15.85
2022-10-16T20:08:37.431Z,15.75
2022-10-16T20:11:41.676Z,15.62
2022-10-16T20:14:44.614Z,15.57
2022-10-16T20:17:47.260Z,15.70
2022-10-16T20:20:52.645Z,15.73
2022-10-16T20:23:55.490Z,15.75
2022-10-16T20:27:00.963Z,15.68
2022-10-16T20:30:03.762Z,15.66
2022-10-16T20:33:08.363Z,15.55
2022-10-16T20:36:12.146Z,15.55
2022-10-16T20:39:14.919Z,15.50
2022-10-16T20:42:18.985Z,15.51
2022-10-16T20:45:21.744Z,15.41
2022-10-16T20:48:24.493Z,15.35
2022-10-16T20:51:28.472Z,15.41
2022-10-16T20:54:31.135Z,15.22
2022-10-16T20:57:35.221Z,15.25
2022-10-16T21:00:38.007Z,15.24
2022-10-16T21:03:40.812Z,15.22
2022-10-16T21:06:45.002Z,15.30
2022-10-16T21:09:47.670Z,15.26
2022-10-16T21:12:55.574Z,15.18
2022-10-16T21:15:58.566Z,15.21
2022-10-16T21:19:01.282Z,15.26
2022-10-16T21:22:04.039Z,15.30
2022-10-16T21:25:07.285Z,15.29
2022-10-16T21:28:11.309Z,15.27
2022-10-16T21:31:14.886Z,15.30
2022-10-16T21:34:17.605Z,15.27
2022-10-16T21:37:20.332Z,15.29
2022-10-16T21:40:23.053Z,15.29
2022-10-16T21:43:27.044Z,15.17
2022-10-16T21:46:30.508Z,15.04
2022-10-16T21:49:33.158Z,15.04
2022-10-16T21:52:35.903Z,14.93
2022-10-16T21:55:38.560Z,14.94
2022-10-16T21:58:42.535Z,14.96
2022-10-16T22:01:45.316Z,14.97
2022-10-16T22:04:48.051Z,14.96
2022-10-16T22:07:50.683Z,14.97
2022-10-16T22:10:53.353Z,14.98
2022-10-16T22:13:57.863Z,14.96
2022-10-16T22:17:00.540Z,14.99
2022-10-16T22:20:03.370Z,15.00
2022-10-16T22:23:06.018Z,15.01
2022-10-16T22:26:09.817Z,14.89
2022-10-16T22:29:14.929Z,14.93
2022-10-16T22:32:17.545Z,14.97
2022-10-16T22:35:20.213Z,14.96
2022-10-16T22:38:22.858Z,14.96
2022-10-16T22:42:10.324Z,15.01
2022-10-16T22:45:14.264Z,15.01
2022-10-16T22:48:16.861Z,15.04
2022-10-16T22:51:19.759Z,15.11
2022-10-16T22:54:22.387Z,15.11
2022-10-16T22:57:25.016Z,15.17
2022-10-16T23:00:28.973Z,15.12
2022-10-16T23:03:31.567Z,15.17
2022-10-16T23:06:34.740Z,15.17
2022-10-16T23:09:37.497Z,15.14
2022-10-16T23:12:40.172Z,15.17
2022-10-16T23:15:44.912Z,15.18
2022-10-16T23:18:48.040Z,15.19
2022-10-16T23:21:50.708Z,15.13
2022-10-16T23:24:53.410Z,15.10
2022-10-16T23:27:56.096Z,15.00
2022-10-16T23:31:00.114Z,14.90
2022-10-16T23:34:03.020Z,14.99
2022-10-16T23:37:06.622Z,14.93
2022-10-16T23:40:09.596Z,14.95
2022-10-16T23:43:12.220Z,14.98
2022-10-16T23:46:16.650Z,14.93
2022-10-16T23:49:19.337Z,14.84
2022-10-16T23:52:21.942Z,14.83
2022-10-16T23:55:24.615Z,14.62
2022-10-16T23:58:27.324Z,14.64
